Terminal Aerodrome Forecast
Issued by NWS Wilmington, OH

Home | Current Version | Previous Version | Text Only | Print | Product List | Glossary On
Versions: 1 2 3 4 5 6 7 8 9 10 11 12 13 14 15 16 17 18 19 20 21 22 23 24 25 26 27 28 29 30 31
000
FTUS41 KILN 311520 AAA
TAFCVG
TAF AMD
KCVG 311520Z 3115/0118 VRB03KT P6SM SCT250
     FM311800 29008KT P6SM VCTS BKN050CB
      TEMPO 3120/3124 5SM -TSRA BR OVC040CB
     FM010000 35006KT P6SM BKN120
     FM010600 02007KT P6SM SCT250
     FM011300 03010KT P6SM SKC=

USA.gov is the U.S. government's official web portal to all federal, state and local government web resources and services.